createdAt,value
2022-09-25T00:00:10.565Z,12.40
2022-09-25T00:05:12.944Z,12.42
2022-09-25T00:10:15.300Z,12.43
2022-09-25T00:15:18.099Z,12.34
2022-09-25T00:20:20.877Z,12.45
2022-09-25T00:25:26.280Z,12.23
2022-09-25T00:30:28.652Z,12.35
2022-09-25T00:35:31.054Z,12.34
2022-09-25T00:40:33.457Z,12.41
2022-09-25T00:45:35.855Z,12.40
2022-09-25T00:50:54.127Z,12.41
2022-09-25T00:55:57.471Z,12.38
2022-09-25T01:01:00.318Z,12.41
2022-09-25T01:06:02.925Z,12.42
2022-09-25T01:11:05.536Z,12.55
2022-09-25T01:16:10.720Z,12.66
2022-09-25T01:21:25.131Z,12.56
2022-09-25T01:27:17.201Z,12.42
2022-09-25T01:32:26.703Z,12.32
2022-09-25T01:38:11.453Z,12.41
2022-09-25T01:43:17.569Z,12.56
2022-09-25T01:48:24.002Z,12.48
2022-09-25T01:53:32.591Z,12.38
2022-09-25T01:58:43.842Z,12.29
2022-09-25T02:03:52.419Z,12.22
2022-09-25T02:09:02.211Z,12.30
2022-09-25T02:14:32.032Z,12.18
2022-09-25T02:19:52.953Z,12.45
2022-09-25T02:25:04.102Z,12.35
2022-09-25T02:30:07.027Z,12.03
2022-09-25T02:35:09.790Z,12.28
2022-09-25T02:40:12.215Z,12.37
2022-09-25T02:45:39.130Z,12.49
2022-09-25T02:51:29.211Z,12.64
2022-09-25T02:56:43.428Z,12.53
2022-09-25T03:01:48.183Z,12.51
2022-09-25T03:06:51.128Z,12.46
2022-09-25T03:11:55.212Z,12.41
2022-09-25T03:16:58.948Z,12.38
2022-09-25T03:22:02.088Z,12.55
2022-09-25T03:27:04.490Z,12.71
2022-09-25T03:32:06.846Z,12.83
2022-09-25T03:37:09.336Z,12.85
2022-09-25T03:42:11.724Z,12.84
2022-09-25T03:47:14.215Z,12.79
2022-09-25T03:52:16.600Z,12.57
2022-09-25T03:57:18.943Z,12.74
2022-09-25T04:02:21.338Z,12.52
2022-09-25T04:07:24.867Z,12.66
2022-09-25T04:12:27.191Z,12.72
2022-09-25T04:17:29.799Z,12.49
2022-09-25T04:22:32.150Z,12.52
2022-09-25T04:27:34.555Z,12.74
2022-09-25T04:32:55.560Z,12.68
2022-09-25T04:37:57.881Z,12.77
2022-09-25T04:43:01.686Z,12.69
2022-09-25T04:48:04.827Z,12.63
2022-09-25T04:53:07.181Z,12.65
2022-09-25T04:58:11.209Z,12.63
2022-09-25T05:03:13.866Z,12.75
2022-09-25T05:08:16.645Z,12.66
2022-09-25T05:13:19.099Z,12.70
2022-09-25T05:18:24.253Z,12.57
2022-09-25T05:23:26.634Z,12.58
2022-09-25T05:28:30.513Z,12.38
2022-09-25T05:33:33.940Z,12.34
2022-09-25T05:38:38.786Z,12.44
2022-09-25T05:43:50.297Z,12.79
2022-09-25T05:48:52.756Z,12.79
2022-09-25T05:53:55.940Z,13.01
2022-09-25T05:58:58.834Z,12.94
2022-09-25T06:04:01.306Z,12.78
2022-09-25T06:09:03.704Z,12.82
2022-09-25T06:14:06.032Z,12.83
2022-09-25T06:19:08.781Z,13.03
2022-09-25T06:24:11.463Z,13.08
2022-09-25T06:29:13.900Z,13.13
2022-09-25T06:34:16.259Z,13.11
2022-09-25T06:39:18.650Z,13.18
2022-09-25T06:44:23.062Z,13.02
2022-09-25T06:49:25.457Z,13.21
2022-09-25T06:54:31.411Z,13.21
2022-09-25T06:59:33.821Z,13.30
2022-09-25T07:04:36.717Z,13.41
2022-09-25T07:09:39.098Z,13.52
2022-09-25T07:14:43.171Z,13.87
2022-09-25T07:19:45.481Z,13.94
2022-09-25T07:24:47.854Z,14.03
2022-09-25T07:29:50.241Z,14.36
2022-09-25T07:34:52.745Z,14.29
2022-09-25T07:39:55.446Z,14.59
2022-09-25T07:44:57.901Z,14.99
2022-09-25T07:50:00.599Z,15.33
2022-09-25T07:55:03.017Z,15.36
2022-09-25T08:00:06.214Z,16.18
2022-09-25T08:05:14.561Z,16.40
2022-09-25T08:10:17.091Z,16.67
2022-09-25T08:15:19.486Z,16.82
2022-09-25T08:20:22.065Z,16.50
2022-09-25T08:25:24.494Z,17.12
2022-09-25T08:30:26.876Z,16.98
2022-09-25T08:35:29.213Z,17.01
2022-09-25T08:40:32.424Z,16.88
2022-09-25T08:45:59.870Z,17.07
2022-09-25T08:51:05.651Z,16.87
2022-09-25T08:56:20.463Z,17.23
2022-09-25T09:01:28.108Z,16.99
2022-09-25T09:06:30.807Z,17.12
2022-09-25T09:11:37.622Z,17.35
2022-09-25T09:16:47.791Z,17.62
2022-09-25T09:22:33.268Z,18.00
2022-09-25T09:27:54.141Z,18.05
2022-09-25T09:32:59.504Z,18.16
2022-09-25T09:38:15.066Z,18.10
2022-09-25T09:43:57.638Z,18.31
2022-09-25T09:49:26.662Z,18.26
2022-09-25T09:55:01.288Z,18.09
2022-09-25T10:00:08.631Z,18.21
2022-09-25T10:05:29.631Z,18.11
2022-09-25T10:10:44.856Z,18.08
2022-09-25T10:15:52.789Z,18.13
2022-09-25T10:21:04.419Z,18.53
2022-09-25T10:26:30.909Z,18.81
2022-09-25T10:31:40.466Z,19.01
2022-09-25T10:36:46.163Z,19.17
2022-09-25T10:41:48.795Z,19.15
2022-09-25T10:47:09.884Z,19.23
2022-09-25T10:52:14.153Z,19.55
2022-09-25T10:57:35.440Z,19.46
2022-09-25T11:02:41.112Z,19.51
2022-09-25T11:07:55.841Z,19.41
2022-09-25T11:12:58.938Z,19.51
2022-09-25T11:18:01.343Z,19.50
2022-09-25T11:23:13.400Z,19.50
2022-09-25T11:28:34.959Z,19.55
2022-09-25T11:33:44.074Z,19.28
2022-09-25T11:39:13.618Z,19.25
2022-09-25T11:44:28.756Z,19.09
2022-09-25T11:49:34.552Z,19.10
2022-09-25T11:54:43.825Z,19.36
2022-09-25T12:00:17.763Z,19.02
2022-09-25T12:05:48.295Z,19.17
2022-09-25T12:11:13.749Z,18.89
2022-09-25T12:16:24.035Z,18.99
2022-09-25T12:21:34.165Z,18.85
2022-09-25T12:26:45.921Z,18.97
2022-09-25T12:32:16.301Z,18.87
2022-09-25T12:37:27.382Z,19.30
2022-09-25T12:42:40.803Z,19.25
2022-09-25T12:47:51.336Z,19.15
2022-09-25T12:53:06.157Z,18.90
2022-09-25T12:58:30.126Z,18.68
2022-09-25T13:04:15.691Z,18.76
2022-09-25T13:09:25.007Z,18.84
2022-09-25T13:14:33.180Z,18.51
2022-09-25T13:19:35.582Z,18.87
2022-09-25T13:24:55.967Z,19.06
2022-09-25T13:30:00.952Z,19.25
2022-09-25T13:35:06.144Z,19.70
2022-09-25T13:40:36.334Z,19.79
2022-09-25T13:45:39.819Z,19.77
2022-09-25T13:50:44.534Z,20.20
2022-09-25T13:55:56.018Z,20.36
2022-09-25T14:00:59.849Z,20.52
2022-09-25T14:06:02.959Z,20.63
2022-09-25T14:11:09.815Z,20.65
2022-09-25T14:16:29.397Z,21.03
2022-09-25T14:21:34.589Z,20.77
2022-09-25T14:26:36.906Z,20.02
2022-09-25T14:31:58.399Z,20.28
2022-09-25T14:37:10.177Z,20.16
2022-09-25T14:42:16.761Z,19.81
2022-09-25T14:47:20.559Z,19.68
2022-09-25T14:52:26.438Z,19.51
2022-09-25T14:57:32.587Z,19.08
2022-09-25T15:02:41.841Z,19.05
2022-09-25T15:07:46.487Z,19.12
2022-09-25T15:12:49.399Z,19.35
2022-09-25T15:17:59.005Z,19.51
2022-09-25T15:23:14.218Z,19.56
2022-09-25T15:28:19.457Z,19.13
2022-09-25T15:33:34.096Z,19.02
2022-09-25T15:38:38.848Z,18.57
2022-09-25T15:43:41.302Z,18.15
2022-09-25T15:48:53.529Z,17.60
2022-09-25T15:53:58.576Z,17.35
2022-09-25T15:59:07.939Z,17.02
2022-09-25T16:04:38.664Z,16.74
2022-09-25T16:09:47.618Z,16.45
2022-09-25T16:14:50.700Z,16.16
2022-09-25T16:20:25.038Z,15.93
2022-09-25T16:25:32.245Z,15.60
2022-09-25T16:30:35.392Z,15.42
2022-09-25T16:36:05.235Z,15.28
2022-09-25T16:41:07.226Z,14.92
2022-09-25T16:46:20.396Z,14.58
2022-09-25T16:51:24.227Z,14.46
2022-09-25T16:56:30.370Z,14.39
2022-09-25T17:01:32.814Z,14.24
2022-09-25T17:06:40.921Z,14.09
2022-09-25T17:11:46.979Z,13.95
2022-09-25T17:16:53.316Z,13.94
2022-09-25T17:21:56.285Z,13.83
2022-09-25T17:26:58.957Z,13.65
2022-09-25T17:32:01.548Z,13.47
2022-09-25T17:37:03.944Z,13.40
2022-09-25T17:42:06.471Z,13.22
2022-09-25T17:47:10.810Z,13.19
2022-09-25T17:52:15.219Z,13.14
2022-09-25T17:57:18.184Z,13.07
2022-09-25T18:02:20.649Z,13.10
2022-09-25T18:07:23.380Z,13.09
2022-09-25T18:12:25.961Z,13.29
2022-09-25T18:17:28.428Z,13.31
2022-09-25T18:22:30.893Z,13.25
2022-09-25T18:27:34.327Z,13.41
2022-09-25T18:32:36.694Z,13.55
2022-09-25T18:37:39.009Z,13.54
2022-09-25T18:42:41.738Z,13.54
2022-09-25T18:47:44.212Z,13.47
2022-09-25T18:52:46.669Z,13.21
2022-09-25T18:57:49.074Z,13.28
2022-09-25T19:02:51.650Z,13.33
2022-09-25T19:07:54.961Z,13.45
2022-09-25T19:12:57.291Z,13.55
2022-09-25T19:17:59.901Z,13.66
2022-09-25T19:23:03.147Z,13.45
2022-09-25T19:28:05.518Z,13.54
2022-09-25T19:33:07.872Z,13.38
2022-09-25T19:38:12.751Z,13.09
2022-09-25T19:43:15.558Z,12.86
2022-09-25T19:48:18.085Z,12.69
2022-09-25T19:53:20.694Z,12.53
2022-09-25T19:58:23.826Z,12.49
2022-09-25T20:03:26.262Z,12.21
2022-09-25T20:08:28.780Z,12.13
2022-09-25T20:13:31.169Z,12.01
2022-09-25T20:18:33.572Z,11.97
2022-09-25T20:23:36.431Z,11.85
2022-09-25T20:28:40.021Z,11.69
2022-09-25T20:33:43.167Z,11.53
2022-09-25T20:38:49.955Z,11.63
2022-09-25T20:43:55.203Z,11.55
2022-09-25T20:48:58.635Z,11.42
2022-09-25T20:54:03.354Z,11.41
2022-09-25T20:59:06.217Z,11.37
2022-09-25T21:04:08.888Z,11.33
2022-09-25T21:09:25.793Z,11.23
2022-09-25T21:14:29.104Z,11.14
2022-09-25T21:19:32.085Z,11.25
2022-09-25T21:24:35.254Z,11.23
2022-09-25T21:29:37.703Z,11.05
2022-09-25T21:34:40.055Z,11.08
2022-09-25T21:39:42.406Z,11.00
2022-09-25T21:44:46.154Z,10.98
2022-09-25T21:49:49.063Z,10.92
2022-09-25T21:54:51.688Z,10.90
2022-09-25T21:59:54.107Z,10.92
2022-09-25T22:04:56.484Z,10.84
2022-09-25T22:09:59.179Z,10.70
2022-09-25T22:15:01.741Z,10.57
2022-09-25T22:20:05.573Z,10.57
2022-09-25T22:25:08.711Z,10.53
2022-09-25T22:30:11.659Z,10.48
2022-09-25T22:35:14.052Z,10.53
2022-09-25T22:40:16.495Z,10.56
2022-09-25T22:45:18.929Z,10.51
2022-09-25T22:50:21.411Z,10.56
2022-09-25T22:55:26.285Z,10.73
2022-09-25T23:00:28.704Z,10.98
2022-09-25T23:05:31.238Z,11.17
2022-09-25T23:11:02.593Z,11.13
2022-09-25T23:15:58.730Z,11.11
2022-09-25T23:21:01.144Z,11.06
2022-09-25T23:26:08.814Z,11.04
2022-09-25T23:31:15.417Z,11.18
2022-09-25T23:36:23.259Z,11.16
2022-09-25T23:41:29.134Z,11.13
2022-09-25T23:46:34.290Z,11.19
2022-09-25T23:51:37.179Z,11.34
2022-09-25T23:56:41.180Z,11.62
